sensor_id;sensor_type;location;lat;lon;timestamp;P1;durP1;ratioP1;P2;durP2;ratioP2
10497;SDS011;5296;51.060;13.750;2024-01-15T00:02:30;8.13;;;5.70;;
10497;SDS011;5296;51.060;13.750;2024-01-15T00:07:32;8.50;;;5.60;;
10497;SDS011;5296;51.060;13.750;2024-01-15T00:12:33;7.60;;;5.70;;
10497;SDS011;5296;51.060;13.750;2024-01-15T00:17:35;9.73;;;6.27;;
10497;SDS011;5296;51.060;13.750;2024-01-15T00:22:37;8.33;;;5.73;;
10497;SDS011;5296;51.060;13.750;2024-01-15T00:27:40;10.10;;;6.17;;
10497;SDS011;5296;51.060;13.750;2024-01-15T00:32:42;7.83;;;5.67;;
10497;SDS011;5296;51.060;13.750;2024-01-15T00:37:43;7.37;;;5.53;;
10497;SDS011;5296;51.060;13.750;2024-01-15T00:42:45;9.20;;;6.37;;
10497;SDS011;5296;51.060;13.750;2024-01-15T00:47:48;8.10;;;5.43;;
10497;SDS011;5296;51.060;13.750;2024-01-15T00:52:50;7.97;;;6.10;;
10497;SDS011;5296;51.060;13.750;2024-01-15T00:57:52;7.63;;;5.73;;
10497;SDS011;5296;51.060;13.750;2024-01-15T01:02:54;8.10;;;5.60;;
10497;SDS011;5296;51.060;13.750;2024-01-15T01:07:55;9.13;;;6.50;;
10497;SDS011;5296;51.060;13.750;2024-01-15T01:12:57;7.87;;;6.47;;
10497;SDS011;5296;51.060;13.750;2024-01-15T01:17:59;7.57;;;5.33;;
10497;SDS011;5296;51.060;13.750;2024-01-15T01:23:01;7.47;;;6.10;;
10497;SDS011;5296;51.060;13.750;2024-01-15T01:28:02;9.03;;;6.07;;
10497;SDS011;5296;51.060;13.750;2024-01-15T01:33:04;8.17;;;6.00;;
10497;SDS011;5296;51.060;13.750;2024-01-15T01:38:06;10.37;;;6.70;;
10497;SDS011;5296;51.060;13.750;2024-01-15T01:43:08;8.43;;;6.23;;
10497;SDS011;5296;51.060;13.750;2024-01-15T01:48:10;8.27;;;6.00;;
10497;SDS011;5296;51.060;13.750;2024-01-15T01:53:13;9.33;;;6.07;;
10497;SDS011;5296;51.060;13.750;2024-01-15T01:58:14;10.57;;;6.90;;
10497;SDS011;5296;51.060;13.750;2024-01-15T02:03:16;9.23;;;6.37;;
10497;SDS011;5296;51.060;13.750;2024-01-15T02:08:18;9.80;;;6.23;;
10497;SDS011;5296;51.060;13.750;2024-01-15T02:13:20;10.07;;;7.00;;
10497;SDS011;5296;51.060;13.750;2024-01-15T02:18:21;9.33;;;6.10;;
10497;SDS011;5296;51.060;13.750;2024-01-15T02:23:23;9.17;;;6.17;;
10497;SDS011;5296;51.060;13.750;2024-01-15T02:28:25;10.10;;;6.73;;
10497;SDS011;5296;51.060;13.750;2024-01-15T02:33:27;9.77;;;6.53;;
10497;SDS011;5296;51.060;13.750;2024-01-15T02:38:29;9.43;;;6.80;;
10497;SDS011;5296;51.060;13.750;2024-01-15T02:43:31;10.87;;;6.83;;
10497;SDS011;5296;51.060;13.750;2024-01-15T02:48:32;10.40;;;7.40;;
10497;SDS011;5296;51.060;13.750;2024-01-15T02:53:36;10.40;;;7.10;;
10497;SDS011;5296;51.060;13.750;2024-01-15T02:58:38;10.57;;;7.03;;
10497;SDS011;5296;51.060;13.750;2024-01-15T03:03:40;9.53;;;7.20;;
10497;SDS011;5296;51.060;13.750;2024-01-15T03:08:42;10.90;;;7.20;;
10497;SDS011;5296;51.060;13.750;2024-01-15T03:13:43;10.53;;;7.03;;
10497;SDS011;5296;51.060;13.750;2024-01-15T03:18:45;10.67;;;7.20;;
10497;SDS011;5296;51.060;13.750;2024-01-15T03:23:47;11.40;;;7.23;;
10497;SDS011;5296;51.060;13.750;2024-01-15T03:28:48;11.33;;;8.00;;
10497;SDS011;5296;51.060;13.750;2024-01-15T03:33:50;10.93;;;6.20;;
10497;SDS011;5296;51.060;13.750;2024-01-15T03:38:52;13.30;;;7.83;;
10497;SDS011;5296;51.060;13.750;2024-01-15T03:43:53;12.37;;;7.97;;
10497;SDS011;5296;51.060;13.750;2024-01-15T03:48:55;9.87;;;7.33;;
10497;SDS011;5296;51.060;13.750;2024-01-15T03:53:57;11.70;;;8.40;;
10497;SDS011;5296;51.060;13.750;2024-01-15T03:58:59;13.87;;;9.03;;
10497;SDS011;5296;51.060;13.750;2024-01-15T04:04:00;10.70;;;8.03;;
10497;SDS011;5296;51.060;13.750;2024-01-15T04:09:02;13.13;;;7.83;;
10497;SDS011;5296;51.060;13.750;2024-01-15T04:14:04;11.77;;;8.00;;
10497;SDS011;5296;51.060;13.750;2024-01-15T04:19:05;11.03;;;7.90;;
10497;SDS011;5296;51.060;13.750;2024-01-15T04:24:08;10.03;;;7.10;;
10497;SDS011;5296;51.060;13.750;2024-01-15T04:29:11;9.73;;;7.40;;
10497;SDS011;5296;51.060;13.750;2024-01-15T04:34:13;12.57;;;7.87;;
10497;SDS011;5296;51.060;13.750;2024-01-15T04:39:15;10.63;;;7.43;;
10497;SDS011;5296;51.060;13.750;2024-01-15T04:44:16;12.67;;;7.77;;
10497;SDS011;5296;51.060;13.750;2024-01-15T04:49:18;11.43;;;8.10;;
10497;SDS011;5296;51.060;13.750;2024-01-15T04:54:20;12.50;;;7.90;;
10497;SDS011;5296;51.060;13.750;2024-01-15T04:59:22;11.17;;;7.90;;
10497;SDS011;5296;51.060;13.750;2024-01-15T05:04:23;14.33;;;7.53;;
10497;SDS011;5296;51.060;13.750;2024-01-15T05:09:28;12.53;;;8.57;;
10497;SDS011;5296;51.060;13.750;2024-01-15T05:14:33;12.90;;;8.33;;
10497;SDS011;5296;51.060;13.750;2024-01-15T05:19:35;10.17;;;7.70;;
10497;SDS011;5296;51.060;13.750;2024-01-15T05:24:37;12.13;;;7.70;;
10497;SDS011;5296;51.060;13.750;2024-01-15T05:29:38;12.30;;;7.40;;
10497;SDS011;5296;51.060;13.750;2024-01-15T05:34:40;11.37;;;7.50;;
10497;SDS011;5296;51.060;13.750;2024-01-15T05:39:42;12.60;;;8.17;;
10497;SDS011;5296;51.060;13.750;2024-01-15T05:44:44;10.47;;;7.57;;
10497;SDS011;5296;51.060;13.750;2024-01-15T05:49:45;13.27;;;7.57;;
10497;SDS011;5296;51.060;13.750;2024-01-15T05:54:47;13.43;;;8.07;;
10497;SDS011;5296;51.060;13.750;2024-01-15T05:59:49;10.03;;;7.53;;
10497;SDS011;5296;51.060;13.750;2024-01-15T06:04:51;14.30;;;7.93;;
10497;SDS011;5296;51.060;13.750;2024-01-15T06:09:53;11.27;;;7.50;;
10497;SDS011;5296;51.060;13.750;2024-01-15T06:14:54;11.23;;;7.47;;
10497;SDS011;5296;51.060;13.750;2024-01-15T06:19:56;10.77;;;6.93;;
10497;SDS011;5296;51.060;13.750;2024-01-15T06:24:59;10.20;;;6.60;;
10497;SDS011;5296;51.060;13.750;2024-01-15T06:30:00;11.50;;;7.30;;
10497;SDS011;5296;51.060;13.750;2024-01-15T06:35:03;9.50;;;6.40;;
10497;SDS011;5296;51.060;13.750;2024-01-15T06:40:05;8.37;;;6.43;;
10497;SDS011;5296;51.060;13.750;2024-01-15T06:45:07;7.97;;;6.07;;
10497;SDS011;5296;51.060;13.750;2024-01-15T06:50:09;9.93;;;6.70;;
10497;SDS011;5296;51.060;13.750;2024-01-15T06:55:11;8.60;;;5.93;;
10497;SDS011;5296;51.060;13.750;2024-01-15T07:00:13;10.50;;;6.50;;
10497;SDS011;5296;51.060;13.750;2024-01-15T07:05:15;9.80;;;5.93;;
10497;SDS011;5296;51.060;13.750;2024-01-15T07:10:17;10.60;;;6.00;;
10497;SDS011;5296;51.060;13.750;2024-01-15T07:15:18;10.30;;;5.80;;
10497;SDS011;5296;51.060;13.750;2024-01-15T07:20:20;9.03;;;5.50;;
10497;SDS011;5296;51.060;13.750;2024-01-15T07:25:22;8.40;;;5.80;;
10497;SDS011;5296;51.060;13.750;2024-01-15T07:30:24;7.80;;;5.40;;
10497;SDS011;5296;51.060;13.750;2024-01-15T07:35:26;9.07;;;5.80;;
10497;SDS011;5296;51.060;13.750;2024-01-15T07:40:27;9.30;;;6.20;;
10497;SDS011;5296;51.060;13.750;2024-01-15T07:45:29;8.83;;;6.27;;
10497;SDS011;5296;51.060;13.750;2024-01-15T07:50:31;9.37;;;6.03;;
10497;SDS011;5296;51.060;13.750;2024-01-15T07:55:33;8.17;;;5.77;;
10497;SDS011;5296;51.060;13.750;2024-01-15T08:00:35;9.43;;;6.57;;
10497;SDS011;5296;51.060;13.750;2024-01-15T08:05:37;7.93;;;5.67;;
10497;SDS011;5296;51.060;13.750;2024-01-15T08:10:38;8.67;;;5.47;;
10497;SDS011;5296;51.060;13.750;2024-01-15T08:15:41;7.20;;;5.27;;
10497;SDS011;5296;51.060;13.750;2024-01-15T08:20:43;10.53;;;5.97;;
10497;SDS011;5296;51.060;13.750;2024-01-15T08:25:44;8.27;;;5.67;;
10497;SDS011;5296;51.060;13.750;2024-01-15T08:30:46;8.63;;;5.60;;
10497;SDS011;5296;51.060;13.750;2024-01-15T08:35:48;10.13;;;5.87;;
10497;SDS011;5296;51.060;13.750;2024-01-15T08:40:50;6.97;;;5.10;;
10497;SDS011;5296;51.060;13.750;2024-01-15T08:45:52;8.53;;;5.70;;
10497;SDS011;5296;51.060;13.750;2024-01-15T08:50:54;8.20;;;5.03;;
10497;SDS011;5296;51.060;13.750;2024-01-15T08:55:56;8.50;;;5.43;;
10497;SDS011;5296;51.060;13.750;2024-01-15T09:00:58;8.37;;;5.37;;
10497;SDS011;5296;51.060;13.750;2024-01-15T09:06:00;8.00;;;5.17;;
10497;SDS011;5296;51.060;13.750;2024-01-15T09:11:02;8.83;;;5.00;;
10497;SDS011;5296;51.060;13.750;2024-01-15T09:16:05;6.03;;;5.00;;
10497;SDS011;5296;51.060;13.750;2024-01-15T09:21:06;9.27;;;4.53;;
10497;SDS011;5296;51.060;13.750;2024-01-15T09:26:08;6.07;;;4.23;;
10497;SDS011;5296;51.060;13.750;2024-01-15T09:31:10;6.83;;;4.90;;
10497;SDS011;5296;51.060;13.750;2024-01-15T09:36:12;8.73;;;4.63;;
10497;SDS011;5296;51.060;13.750;2024-01-15T09:41:14;7.97;;;4.77;;
10497;SDS011;5296;51.060;13.750;2024-01-15T09:46:16;6.50;;;4.60;;
10497;SDS011;5296;51.060;13.750;2024-01-15T09:51:19;7.57;;;4.43;;
10497;SDS011;5296;51.060;13.750;2024-01-15T09:56:21;6.93;;;4.03;;
10497;SDS011;5296;51.060;13.750;2024-01-15T10:01:23;6.87;;;4.40;;
10497;SDS011;5296;51.060;13.750;2024-01-15T10:06:26;6.33;;;4.10;;
10497;SDS011;5296;51.060;13.750;2024-01-15T10:11:31;8.23;;;4.43;;
10497;SDS011;5296;51.060;13.750;2024-01-15T10:16:34;5.87;;;4.33;;
10497;SDS011;5296;51.060;13.750;2024-01-15T10:21:36;8.13;;;4.13;;
10497;SDS011;5296;51.060;13.750;2024-01-15T10:26:38;5.67;;;4.17;;
10497;SDS011;5296;51.060;13.750;2024-01-15T10:31:40;7.80;;;4.33;;
10497;SDS011;5296;51.060;13.750;2024-01-15T10:36:42;6.43;;;3.90;;
10497;SDS011;5296;51.060;13.750;2024-01-15T10:41:50;5.80;;;4.40;;
10497;SDS011;5296;51.060;13.750;2024-01-15T10:46:55;7.03;;;4.93;;
10497;SDS011;5296;51.060;13.750;2024-01-15T10:51:58;6.30;;;3.53;;
10497;SDS011;5296;51.060;13.750;2024-01-15T10:57:00;6.33;;;4.50;;
10497;SDS011;5296;51.060;13.750;2024-01-15T11:02:03;7.10;;;4.67;;
10497;SDS011;5296;51.060;13.750;2024-01-15T11:07:05;6.20;;;4.07;;
10497;SDS011;5296;51.060;13.750;2024-01-15T11:12:09;8.73;;;4.00;;
10497;SDS011;5296;51.060;13.750;2024-01-15T11:17:13;6.53;;;4.10;;
10497;SDS011;5296;51.060;13.750;2024-01-15T11:27:39;9.67;;;4.27;;
10497;SDS011;5296;51.060;13.750;2024-01-15T11:32:42;8.90;;;4.67;;
10497;SDS011;5296;51.060;13.750;2024-01-15T11:42:53;7.67;;;4.70;;
10497;SDS011;5296;51.060;13.750;2024-01-15T11:53:00;6.77;;;4.37;;
10497;SDS011;5296;51.060;13.750;2024-01-15T11:58:08;6.57;;;4.93;;
10497;SDS011;5296;51.060;13.750;2024-01-15T12:03:12;14.43;;;9.17;;
10497;SDS011;5296;51.060;13.750;2024-01-15T12:08:14;7.13;;;4.73;;
10497;SDS011;5296;51.060;13.750;2024-01-15T12:13:16;6.28;;;4.57;;
10497;SDS011;5296;51.060;13.750;2024-01-15T12:18:19;6.47;;;4.00;;
10497;SDS011;5296;51.060;13.750;2024-01-15T12:23:21;5.73;;;3.87;;
10497;SDS011;5296;51.060;13.750;2024-01-15T12:28:23;5.00;;;4.07;;
10497;SDS011;5296;51.060;13.750;2024-01-15T12:33:25;7.07;;;4.30;;
10497;SDS011;5296;51.060;13.750;2024-01-15T12:38:28;7.70;;;3.60;;
10497;SDS011;5296;51.060;13.750;2024-01-15T12:43:29;6.50;;;4.40;;
10497;SDS011;5296;51.060;13.750;2024-01-15T12:48:31;6.17;;;3.93;;
10497;SDS011;5296;51.060;13.750;2024-01-15T12:53:33;6.23;;;3.90;;
10497;SDS011;5296;51.060;13.750;2024-01-15T12:58:36;6.50;;;3.93;;
10497;SDS011;5296;51.060;13.750;2024-01-15T13:03:37;8.73;;;4.53;;
10497;SDS011;5296;51.060;13.750;2024-01-15T13:08:39;5.37;;;4.07;;
10497;SDS011;5296;51.060;13.750;2024-01-15T13:13:41;6.83;;;4.37;;
10497;SDS011;5296;51.060;13.750;2024-01-15T13:18:42;7.73;;;4.40;;
10497;SDS011;5296;51.060;13.750;2024-01-15T13:23:44;6.47;;;4.67;;
10497;SDS011;5296;51.060;13.750;2024-01-15T13:28:46;7.87;;;4.20;;
10497;SDS011;5296;51.060;13.750;2024-01-15T13:33:48;7.63;;;4.40;;
10497;SDS011;5296;51.060;13.750;2024-01-15T13:38:50;6.77;;;4.33;;
10497;SDS011;5296;51.060;13.750;2024-01-15T13:43:53;6.60;;;4.47;;
10497;SDS011;5296;51.060;13.750;2024-01-15T13:48:55;6.57;;;5.00;;
10497;SDS011;5296;51.060;13.750;2024-01-15T13:53:57;6.37;;;4.23;;
10497;SDS011;5296;51.060;13.750;2024-01-15T13:58:59;6.13;;;4.73;;
10497;SDS011;5296;51.060;13.750;2024-01-15T14:04:00;6.67;;;4.77;;
10497;SDS011;5296;51.060;13.750;2024-01-15T14:09:02;7.23;;;4.80;;
10497;SDS011;5296;51.060;13.750;2024-01-15T14:14:05;6.60;;;4.13;;
10497;SDS011;5296;51.060;13.750;2024-01-15T14:19:09;8.03;;;5.10;;
10497;SDS011;5296;51.060;13.750;2024-01-15T14:24:11;6.13;;;4.37;;
10497;SDS011;5296;51.060;13.750;2024-01-15T14:29:13;7.07;;;4.37;;
10497;SDS011;5296;51.060;13.750;2024-01-15T14:34:14;6.53;;;4.40;;
10497;SDS011;5296;51.060;13.750;2024-01-15T14:39:17;6.17;;;4.47;;
10497;SDS011;5296;51.060;13.750;2024-01-15T14:44:20;7.23;;;4.53;;
10497;SDS011;5296;51.060;13.750;2024-01-15T14:49:22;7.33;;;4.77;;
10497;SDS011;5296;51.060;13.750;2024-01-15T14:54:24;8.43;;;5.30;;
10497;SDS011;5296;51.060;13.750;2024-01-15T14:59:27;8.27;;;5.07;;
10497;SDS011;5296;51.060;13.750;2024-01-15T15:04:31;10.37;;;5.33;;
10497;SDS011;5296;51.060;13.750;2024-01-15T15:09:33;7.50;;;5.27;;
10497;SDS011;5296;51.060;13.750;2024-01-15T15:14:35;6.53;;;5.20;;
10497;SDS011;5296;51.060;13.750;2024-01-15T15:19:51;8.23;;;4.33;;
10497;SDS011;5296;51.060;13.750;2024-01-15T15:24:56;6.67;;;4.47;;
10497;SDS011;5296;51.060;13.750;2024-01-15T15:29:58;7.40;;;5.00;;
10497;SDS011;5296;51.060;13.750;2024-01-15T15:34:59;6.93;;;4.70;;
10497;SDS011;5296;51.060;13.750;2024-01-15T15:40:01;11.00;;;5.43;;
10497;SDS011;5296;51.060;13.750;2024-01-15T15:45:04;7.80;;;5.23;;
10497;SDS011;5296;51.060;13.750;2024-01-15T15:50:06;7.10;;;5.20;;
10497;SDS011;5296;51.060;13.750;2024-01-15T15:55:09;8.10;;;5.37;;
10497;SDS011;5296;51.060;13.750;2024-01-15T16:00:10;6.03;;;4.83;;
10497;SDS011;5296;51.060;13.750;2024-01-15T16:05:13;6.63;;;5.23;;
10497;SDS011;5296;51.060;13.750;2024-01-15T16:10:15;7.73;;;4.77;;
10497;SDS011;5296;51.060;13.750;2024-01-15T16:15:18;7.57;;;5.07;;
10497;SDS011;5296;51.060;13.750;2024-01-15T16:20:21;6.13;;;5.17;;
10497;SDS011;5296;51.060;13.750;2024-01-15T16:25:42;7.10;;;5.10;;
10497;SDS011;5296;51.060;13.750;2024-01-15T16:30:45;6.27;;;4.90;;
10497;SDS011;5296;51.060;13.750;2024-01-15T16:35:48;7.70;;;5.17;;
10497;SDS011;5296;51.060;13.750;2024-01-15T16:40:50;6.43;;;5.13;;
10497;SDS011;5296;51.060;13.750;2024-01-15T16:45:52;6.57;;;4.87;;
10497;SDS011;5296;51.060;13.750;2024-01-15T16:50:54;8.37;;;5.07;;
10497;SDS011;5296;51.060;13.750;2024-01-15T16:55:56;7.00;;;5.03;;
10497;SDS011;5296;51.060;13.750;2024-01-15T17:00:58;6.83;;;5.10;;
10497;SDS011;5296;51.060;13.750;2024-01-15T17:06:00;9.43;;;7.13;;
10497;SDS011;5296;51.060;13.750;2024-01-15T17:11:02;7.27;;;5.50;;
10497;SDS011;5296;51.060;13.750;2024-01-15T17:16:04;7.60;;;5.50;;
10497;SDS011;5296;51.060;13.750;2024-01-15T17:21:06;8.57;;;6.03;;
10497;SDS011;5296;51.060;13.750;2024-01-15T17:26:08;8.17;;;5.93;;
10497;SDS011;5296;51.060;13.750;2024-01-15T17:31:10;7.77;;;5.60;;
10497;SDS011;5296;51.060;13.750;2024-01-15T17:36:12;8.50;;;5.07;;
10497;SDS011;5296;51.060;13.750;2024-01-15T17:41:14;7.00;;;4.83;;
10497;SDS011;5296;51.060;13.750;2024-01-15T17:46:15;6.57;;;4.53;;
10497;SDS011;5296;51.060;13.750;2024-01-15T17:51:17;7.77;;;4.90;;
10497;SDS011;5296;51.060;13.750;2024-01-15T17:56:20;4.77;;;4.17;;
10497;SDS011;5296;51.060;13.750;2024-01-15T18:01:21;6.73;;;4.90;;
10497;SDS011;5296;51.060;13.750;2024-01-15T18:06:23;5.30;;;4.70;;
10497;SDS011;5296;51.060;13.750;2024-01-15T18:11:25;5.20;;;4.47;;
10497;SDS011;5296;51.060;13.750;2024-01-15T18:16:27;7.20;;;5.13;;
10497;SDS011;5296;51.060;13.750;2024-01-15T18:21:28;6.43;;;4.83;;
10497;SDS011;5296;51.060;13.750;2024-01-15T18:26:30;9.50;;;5.60;;
10497;SDS011;5296;51.060;13.750;2024-01-15T18:31:32;7.07;;;5.40;;
10497;SDS011;5296;51.060;13.750;2024-01-15T18:36:33;7.30;;;5.87;;
10497;SDS011;5296;51.060;13.750;2024-01-15T18:41:35;7.00;;;5.00;;
10497;SDS011;5296;51.060;13.750;2024-01-15T18:46:37;7.17;;;4.63;;
10497;SDS011;5296;51.060;13.750;2024-01-15T18:51:39;5.73;;;4.73;;
10497;SDS011;5296;51.060;13.750;2024-01-15T18:56:41;6.23;;;5.07;;
10497;SDS011;5296;51.060;13.750;2024-01-15T19:01:43;6.53;;;5.17;;
10497;SDS011;5296;51.060;13.750;2024-01-15T19:06:45;5.90;;;4.73;;
10497;SDS011;5296;51.060;13.750;2024-01-15T19:11:49;8.73;;;6.17;;
10497;SDS011;5296;51.060;13.750;2024-01-15T19:16:51;6.13;;;5.13;;
10497;SDS011;5296;51.060;13.750;2024-01-15T19:21:54;9.47;;;6.33;;
10497;SDS011;5296;51.060;13.750;2024-01-15T19:26:55;6.80;;;5.00;;
10497;SDS011;5296;51.060;13.750;2024-01-15T19:31:57;7.33;;;5.23;;
10497;SDS011;5296;51.060;13.750;2024-01-15T19:37:00;6.27;;;5.17;;
10497;SDS011;5296;51.060;13.750;2024-01-15T19:42:02;6.13;;;4.60;;
10497;SDS011;5296;51.060;13.750;2024-01-15T19:47:04;7.33;;;5.10;;
10497;SDS011;5296;51.060;13.750;2024-01-15T19:52:06;5.27;;;4.10;;
10497;SDS011;5296;51.060;13.750;2024-01-15T19:57:08;5.97;;;4.50;;
10497;SDS011;5296;51.060;13.750;2024-01-15T20:02:09;4.20;;;3.80;;
10497;SDS011;5296;51.060;13.750;2024-01-15T20:07:11;6.73;;;4.00;;
10497;SDS011;5296;51.060;13.750;2024-01-15T20:12:13;5.37;;;3.73;;
10497;SDS011;5296;51.060;13.750;2024-01-15T20:17:15;6.17;;;4.07;;
10497;SDS011;5296;51.060;13.750;2024-01-15T20:22:16;4.03;;;3.63;;
10497;SDS011;5296;51.060;13.750;2024-01-15T20:27:19;4.47;;;3.73;;
10497;SDS011;5296;51.060;13.750;2024-01-15T20:32:21;4.77;;;3.50;;
10497;SDS011;5296;51.060;13.750;2024-01-15T20:37:23;3.73;;;3.27;;
10497;SDS011;5296;51.060;13.750;2024-01-15T20:42:25;3.30;;;3.00;;
10497;SDS011;5296;51.060;13.750;2024-01-15T20:47:27;4.40;;;2.83;;
10497;SDS011;5296;51.060;13.750;2024-01-15T20:52:29;3.60;;;2.67;;
10497;SDS011;5296;51.060;13.750;2024-01-15T20:57:30;3.30;;;3.00;;
10497;SDS011;5296;51.060;13.750;2024-01-15T21:02:32;3.33;;;2.70;;
10497;SDS011;5296;51.060;13.750;2024-01-15T21:07:36;3.33;;;2.90;;
10497;SDS011;5296;51.060;13.750;2024-01-15T21:12:38;3.43;;;2.53;;
10497;SDS011;5296;51.060;13.750;2024-01-15T21:17:41;2.40;;;2.20;;
10497;SDS011;5296;51.060;13.750;2024-01-15T21:22:44;2.53;;;2.30;;
10497;SDS011;5296;51.060;13.750;2024-01-15T21:27:46;2.77;;;2.30;;
10497;SDS011;5296;51.060;13.750;2024-01-15T21:32:47;3.90;;;2.30;;
10497;SDS011;5296;51.060;13.750;2024-01-15T21:37:49;3.30;;;2.33;;
10497;SDS011;5296;51.060;13.750;2024-01-15T21:42:51;3.23;;;2.50;;
10497;SDS011;5296;51.060;13.750;2024-01-15T21:47:53;2.30;;;2.10;;
10497;SDS011;5296;51.060;13.750;2024-01-15T21:52:54;3.07;;;2.03;;
10497;SDS011;5296;51.060;13.750;2024-01-15T21:57:56;2.73;;;1.90;;
10497;SDS011;5296;51.060;13.750;2024-01-15T22:02:58;2.23;;;2.03;;
10497;SDS011;5296;51.060;13.750;2024-01-15T22:07:59;2.07;;;1.87;;
10497;SDS011;5296;51.060;13.750;2024-01-15T22:13:01;3.40;;;1.60;;
10497;SDS011;5296;51.060;13.750;2024-01-15T22:18:03;1.80;;;1.70;;
10497;SDS011;5296;51.060;13.750;2024-01-15T22:23:05;1.63;;;1.40;;
10497;SDS011;5296;51.060;13.750;2024-01-15T22:28:07;1.50;;;1.40;;
10497;SDS011;5296;51.060;13.750;2024-01-15T22:33:09;1.40;;;1.30;;
10497;SDS011;5296;51.060;13.750;2024-01-15T22:38:11;1.20;;;1.10;;
10497;SDS011;5296;51.060;13.750;2024-01-15T22:43:13;1.57;;;1.40;;
10497;SDS011;5296;51.060;13.750;2024-01-15T22:48:14;1.70;;;1.60;;
10497;SDS011;5296;51.060;13.750;2024-01-15T22:53:16;1.80;;;1.70;;
10497;SDS011;5296;51.060;13.750;2024-01-15T22:58:19;2.83;;;1.80;;
10497;SDS011;5296;51.060;13.750;2024-01-15T23:03:21;2.30;;;1.90;;
10497;SDS011;5296;51.060;13.750;2024-01-15T23:08:22;4.90;;;1.70;;
10497;SDS011;5296;51.060;13.750;2024-01-15T23:13:24;3.07;;;2.00;;
10497;SDS011;5296;51.060;13.750;2024-01-15T23:18:26;3.80;;;1.90;;
10497;SDS011;5296;51.060;13.750;2024-01-15T23:23:28;3.07;;;1.80;;
10497;SDS011;5296;51.060;13.750;2024-01-15T23:28:30;3.83;;;2.10;;
10497;SDS011;5296;51.060;13.750;2024-01-15T23:33:32;4.23;;;1.80;;
10497;SDS011;5296;51.060;13.750;2024-01-15T23:38:36;4.67;;;1.77;;
10497;SDS011;5296;51.060;13.750;2024-01-15T23:43:39;2.53;;;1.33;;
10497;SDS011;5296;51.060;13.750;2024-01-15T23:48:41;4.57;;;1.60;;
10497;SDS011;5296;51.060;13.750;2024-01-15T23:53:43;3.17;;;1.30;;
10497;SDS011;5296;51.060;13.750;2024-01-15T23:58:45;4.90;;;1.47;;
